Time;durP1;ratioP1;P1;durP2;ratioP2;P2;SDS_P1;SDS_P2;PMS_P1;PMS_P2;Temp;Humidity;BMP_temperature;BMP_pressure;BME280_temperature;BME280_humidity;BME280_pressure;Samples;Min_cycle;Max_cycle;Signal;HPM_P1;HPM_P2
2023/09/07 00:01:48;;;;;;;7.03;4.82;;;;;;;17.84;85.33;101785.31;5026730;28;20391;-77
2023/09/07 00:04:13;;;;;;;5.80;4.88;;;;;;;17.80;86.21;101783.25;5030093;28;20025;-77
2023/09/07 00:06:42;;;;;;;7.55;5.00;;;;;;;17.73;86.47;101786.03;5046528;28;20021;-77
2023/09/07 00:09:08;;;;;;;4.78;4.38;;;;;;;17.73;87.26;101784.16;5049297;28;20029;-78
2023/09/07 00:11:33;;;;;;;5.10;4.60;;;;;;;17.71;88.86;101786.25;5026382;28;20448;-77
2023/09/07 00:13:59;;;;;;;5.18;4.70;;;;;;;17.62;89.68;101787.59;5031516;28;20465;-77
2023/09/07 00:16:24;;;;;;;5.68;4.75;;;;;;;17.54;88.52;101790.56;5034099;28;20394;-78
2023/09/07 00:18:50;;;;;;;4.90;4.50;;;;;;;17.45;88.22;101789.19;5030489;28;20026;-77
2023/09/07 00:21:16;;;;;;;5.70;4.70;;;;;;;17.32;88.59;101788.19;5026125;28;20026;-77
2023/09/07 00:23:41;;;;;;;7.20;5.05;;;;;;;17.23;88.70;101793.06;5031029;28;20026;-77
2023/09/07 00:26:07;;;;;;;5.60;5.00;;;;;;;17.13;89.60;101788.09;5025568;28;20026;-76
2023/09/07 00:28:32;;;;;;;5.55;4.97;;;;;;;17.08;90.34;101785.22;5032356;28;20030;-76
2023/09/07 00:30:57;;;;;;;5.70;5.20;;;;;;;17.05;90.82;101796.53;5027051;28;20088;-77
2023/09/07 00:33:23;;;;;;;6.20;5.50;;;;;;;17.01;90.59;101791.75;5020609;28;20043;-77
2023/09/07 00:35:48;;;;;;;5.53;5.00;;;;;;;17.00;91.09;101793.63;5033115;28;20457;-77
2023/09/07 00:38:14;;;;;;;5.13;4.63;;;;;;;16.99;90.85;101791.94;5033953;28;20423;-78
2023/09/07 00:40:43;;;;;;;7.50;4.90;;;;;;;16.97;90.71;101794.03;5027538;28;20036;-78
2023/09/07 00:43:09;;;;;;;5.25;4.75;;;;;;;16.95;92.14;101788.84;5026980;28;20047;-77
2023/09/07 00:45:34;;;;;;;6.63;5.03;;;;;;;16.95;92.25;101796.16;5026620;28;20469;-77
2023/09/07 00:48:00;;;;;;;5.47;4.93;;;;;;;16.87;91.56;101780.06;5016183;28;20029;-77
2023/09/07 00:50:28;;;;;;;5.18;4.68;;;;;;;16.85;91.23;101790.31;5020146;28;20095;-77
2023/09/07 00:52:56;;;;;;;6.60;4.97;;;;;;;16.79;91.34;101781.97;5016880;28;20033;-77
2023/09/07 00:55:27;;;;;;;5.32;4.75;;;;;;;16.80;91.72;101783.63;5009625;28;20374;-77
2023/09/07 00:57:53;;;;;;;5.32;4.80;;;;;;;16.71;91.93;101779.50;5032288;28;20018;-78
2023/09/07 01:00:18;;;;;;;10.55;6.03;;;;;;;16.69;92.98;101784.31;5033960;28;20021;-78
2023/09/07 01:02:44;;;;;;;6.32;5.50;;;;;;;16.69;93.19;101787.03;5030372;28;20470;-77
2023/09/07 01:05:11;;;;;;;7.13;6.20;;;;;;;16.72;93.85;101780.31;5008300;28;20045;-78
2023/09/07 01:07:40;;;;;;;6.47;5.82;;;;;;;16.68;93.21;101786.19;5012552;28;20021;-78
2023/09/07 01:10:06;;;;;;;5.60;5.07;;;;;;;16.65;93.10;101786.63;5027505;28;20025;-77
2023/09/07 01:12:31;;;;;;;6.82;5.68;;;;;;;16.63;93.62;101787.88;5015988;28;20025;-77
2023/09/07 01:15:01;;;;;;;5.78;5.20;;;;;;;16.62;93.18;101789.78;5037245;28;21273;-77
2023/09/07 01:17:27;;;;;;;5.88;5.28;;;;;;;16.57;92.71;101778.72;5032839;28;20018;-77
2023/09/07 01:19:52;;;;;;;6.85;6.15;;;;;;;16.51;93.38;101776.84;5015854;28;20048;-77
2023/09/07 01:22:19;;;;;;;5.88;5.28;;;;;;;16.46;94.43;101774.78;5035970;28;20097;-77
2023/09/07 01:24:44;;;;;;;6.07;5.47;;;;;;;16.43;94.38;101771.66;5014816;28;20068;-77
2023/09/07 01:27:13;;;;;;;6.85;6.15;;;;;;;16.36;94.48;101766.25;5029039;28;20045;-77
2023/09/07 01:29:38;;;;;;;8.25;6.45;;;;;;;16.30;95.26;101769.78;5033499;28;20397;-77
2023/09/07 01:32:04;;;;;;;6.90;5.55;;;;;;;16.25;95.40;101772.31;5032351;28;20056;-77
2023/09/07 01:34:29;;;;;;;6.68;5.82;;;;;;;16.18;95.96;101765.03;5041386;28;20110;-77
2023/09/07 01:36:55;;;;;;;6.35;5.78;;;;;;;16.12;96.75;101765.88;5031934;28;20037;-76
2023/09/07 01:39:20;;;;;;;6.55;5.95;;;;;;;16.05;96.96;101778.63;5031589;28;20024;-77
2023/09/07 01:41:46;;;;;;;7.07;5.78;;;;;;;15.99;97.04;101768.59;5030265;28;20025;-77
2023/09/07 01:44:11;;;;;;;7.97;6.47;;;;;;;15.91;97.41;101770.47;5028125;28;20539;-76
2023/09/07 01:46:37;;;;;;;7.47;5.65;;;;;;;15.88;97.93;101772.78;5030806;28;20038;-77
2023/09/07 01:49:02;;;;;;;7.40;6.70;;;;;;;15.85;98.50;101765.91;5024310;28;20025;-77
2023/09/07 01:51:30;;;;;;;7.30;6.60;;;;;;;15.85;98.45;101765.91;5024120;23;20053;-77
2023/09/07 01:53:55;;;;;;;6.85;5.90;;;;;;;15.84;98.43;101766.94;5000358;28;20042;-77
2023/09/07 01:56:21;;;;;;;6.30;5.70;;;;;;;15.84;98.39;101763.34;5005898;28;20547;-77
2023/09/07 01:58:49;;;;;;;6.30;5.68;;;;;;;15.85;98.31;101763.19;5010812;28;20033;-77
2023/09/07 02:01:21;;;;;;;6.45;5.85;;;;;;;15.90;98.11;101760.66;5004968;28;20029;-77
2023/09/07 02:03:49;;;;;;;5.82;5.32;;;;;;;15.90;98.06;101763.38;5007452;28;20041;-77
2023/09/07 02:06:15;;;;;;;5.97;5.38;;;;;;;15.94;98.00;101752.09;5010772;28;20044;-77
2023/09/07 02:08:40;;;;;;;6.85;5.55;;;;;;;15.92;97.33;101765.91;5000501;28;20416;-76
2023/09/07 02:11:06;;;;;;;5.68;5.18;;;;;;;15.91;97.23;101759.63;4993544;28;20032;-76
2023/09/07 02:13:31;;;;;;;6.75;6.00;;;;;;;15.87;97.36;101763.81;5006869;28;20389;-76
2023/09/07 02:15:57;;;;;;;6.20;5.15;;;;;;;15.86;97.03;101764.00;5009279;28;20034;-74
2023/09/07 02:18:22;;;;;;;6.32;5.55;;;;;;;15.80;97.70;101767.53;5009989;28;20481;-75
2023/09/07 02:20:50;;;;;;;6.85;6.25;;;;;;;15.79;100.00;101765.88;5011011;28;20036;-77
2023/09/07 02:23:16;;;;;;;6.32;5.72;;;;;;;15.72;100.00;101766.72;5009223;28;20139;-77
2023/09/07 02:25:42;;;;;;;6.22;5.60;;;;;;;15.65;99.79;101767.75;5006624;28;20044;-78
2023/09/07 02:28:07;;;;;;;6.63;5.93;;;;;;;15.61;100.00;101756.50;4999851;28;20037;-76
2023/09/07 02:30:33;;;;;;;6.13;5.53;;;;;;;15.58;99.76;101765.03;5010254;28;20474;-77
2023/09/07 02:32:58;;;;;;;6.88;6.28;;;;;;;15.58;100.00;101762.34;5003401;28;20038;-77
2023/09/07 02:35:23;;;;;;;7.03;6.43;;;;;;;15.54;100.00;101764.59;5010415;28;20386;-77
2023/09/07 02:37:49;;;;;;;6.50;5.70;;;;;;;15.44;100.00;101758.75;5009413;28;20479;-77
2023/09/07 02:40:15;;;;;;;6.25;5.65;;;;;;;15.38;100.00;101754.16;5007509;28;20665;-79
2023/09/07 02:42:42;;;;;;;6.45;5.85;;;;;;;15.31;100.00;101760.44;5010111;28;20053;-78
2023/09/07 02:45:10;;;;;;;6.13;5.50;;;;;;;15.26;100.00;101756.66;5010639;28;20131;-78
2023/09/07 02:47:36;;;;;;;6.32;5.60;;;;;;;15.19;100.00;101756.63;5011854;28;20033;-79
2023/09/07 02:50:01;;;;;;;6.88;5.97;;;;;;;15.14;100.00;101753.72;5010261;28;20363;-78
2023/09/07 02:52:26;;;;;;;7.93;5.82;;;;;;;15.09;100.00;101753.50;5011425;28;20418;-79
2023/09/07 02:54:55;;;;;;;6.80;6.10;;;;;;;15.06;100.00;101754.75;5006103;28;20383;-78
2023/09/07 02:57:20;;;;;;;6.13;5.43;;;;;;;15.01;100.00;101755.34;5005485;28;20049;-78
2023/09/07 02:59:46;;;;;;;7.60;5.65;;;;;;;14.99;100.00;101746.59;5006851;28;20494;-78
2023/09/07 03:02:12;;;;;;;6.13;5.15;;;;;;;14.98;100.00;101749.50;5010960;28;20030;-79
2023/09/07 03:04:37;;;;;;;7.00;5.75;;;;;;;14.96;100.00;101752.41;5011510;28;20041;-78
2023/09/07 03:07:03;;;;;;;6.07;5.47;;;;;;;14.94;100.00;101754.50;5010935;28;20022;-78
2023/09/07 03:09:28;;;;;;;7.07;6.38;;;;;;;14.92;100.00;101756.56;5009718;28;20102;-78
2023/09/07 03:11:53;;;;;;;5.85;5.32;;;;;;;14.90;100.00;101755.94;5009794;28;20045;-77
2023/09/07 03:14:19;;;;;;;6.55;5.95;;;;;;;14.85;100.00;101761.13;5012177;28;20045;-77
2023/09/07 03:16:44;;;;;;;7.55;5.43;;;;;;;14.82;100.00;101753.44;5009272;28;20026;-76
2023/09/07 03:19:10;;;;;;;6.30;5.70;;;;;;;14.79;100.00;101761.97;5010141;28;20022;-77
2023/09/07 03:21:38;;;;;;;7.05;6.25;;;;;;;14.75;100.00;101766.09;5012038;28;20675;-77
2023/09/07 03:24:03;;;;;;;6.80;6.10;;;;;;;14.75;100.00;101749.84;5006481;28;20113;-77
2023/09/07 03:26:29;;;;;;;7.05;6.35;;;;;;;14.70;100.00;101759.41;5010206;28;20042;-77
2023/09/07 03:28:54;;;;;;;6.85;5.82;;;;;;;14.67;100.00;101759.78;5011732;28;20057;-77
2023/09/07 03:31:22;;;;;;;6.50;5.90;;;;;;;14.62;100.00;101761.44;5010394;28;20446;-77
2023/09/07 03:33:49;;;;;;;6.90;6.28;;;;;;;14.59;100.00;101765.38;5011957;28;20576;-77
2023/09/07 03:36:14;;;;;;;6.30;5.63;;;;;;;14.56;100.00;101763.88;5012514;28;20026;-77
2023/09/07 03:38:40;;;;;;;6.90;6.20;;;;;;;14.54;100.00;101762.44;5007559;28;20040;-77
2023/09/07 03:41:06;;;;;;;6.15;5.38;;;;;;;14.50;100.00;101767.44;5011994;28;20026;-77
2023/09/07 03:43:31;;;;;;;6.68;5.57;;;;;;;14.46;100.00;101763.44;5012974;28;20609;-77
2023/09/07 03:45:57;;;;;;;10.77;6.05;;;;;;;14.42;100.00;101773.00;5010257;28;20100;-77
2023/09/07 03:48:22;;;;;;;6.63;5.93;;;;;;;14.37;100.00;101770.88;5011650;28;20034;-77
2023/09/07 03:50:48;;;;;;;6.40;5.80;;;;;;;14.34;100.00;101770.47;5012105;28;20030;-78
2023/09/07 03:53:14;;;;;;;7.20;6.47;;;;;;;14.31;100.00;101768.97;5010794;28;20512;-77
2023/09/07 03:55:42;;;;;;;8.23;6.80;;;;;;;14.32;100.00;101767.94;5023071;28;20385;-77
2023/09/07 03:58:10;;;;;;;6.88;6.25;;;;;;;14.33;100.00;101766.91;5033120;28;20010;-77
2023/09/07 04:00:38;;;;;;;8.98;7.07;;;;;;;14.38;100.00;101772.56;5026616;28;20030;-77
2023/09/07 04:03:07;;;;;;;8.25;7.32;;;;;;;14.44;100.00;101765.50;4996615;28;20398;-78
2023/09/07 04:05:33;;;;;;;7.47;6.63;;;;;;;14.46;100.00;101763.44;5008789;28;20026;-77
2023/09/07 04:08:00;;;;;;;7.20;6.50;;;;;;;14.49;100.00;101770.31;5002335;28;20044;-77
2023/09/07 04:10:25;;;;;;;7.03;6.40;;;;;;;14.48;100.00;101760.50;5015473;28;20022;-77
2023/09/07 04:12:51;;;;;;;6.60;5.90;;;;;;;14.45;100.00;101771.78;5014649;28;20033;-79
2023/09/07 04:15:16;;;;;;;6.40;5.75;;;;;;;14.42;100.00;101767.56;5014213;28;20145;-77
2023/09/07 04:17:42;;;;;;;6.63;5.95;;;;;;;14.37;100.00;101770.88;5013316;28;20071;-79
2023/09/07 04:20:08;;;;;;;7.40;6.63;;;;;;;14.33;100.00;101768.78;5015716;28;20033;-79
2023/09/07 04:22:34;;;;;;;7.38;6.68;;;;;;;14.31;100.00;101763.56;5015819;28;20026;-79
2023/09/07 04:24:59;;;;;;;7.38;6.68;;;;;;;14.28;100.00;101761.28;5016254;28;20382;-76
2023/09/07 04:27:25;;;;;;;8.70;6.63;;;;;;;14.29;100.00;101762.94;5015706;28;20333;-76
2023/09/07 04:29:51;;;;;;;7.03;6.32;;;;;;;14.30;100.00;101771.88;5017311;28;20022;-77
2023/09/07 04:32:16;;;;;;;8.02;6.63;;;;;;;14.27;100.00;101765.00;5016275;28;20038;-77
2023/09/07 04:34:42;;;;;;;7.93;6.38;;;;;;;14.21;100.00;101772.03;5015628;28;20421;-77
2023/09/07 04:37:07;;;;;;;8.10;7.30;;;;;;;14.18;100.00;101775.16;5011162;28;20046;-77
2023/09/07 04:39:33;;;;;;;8.68;7.20;;;;;;;14.12;100.00;101773.25;5015703;28;20520;-76
2023/09/07 04:41:58;;;;;;;7.43;6.72;;;;;;;14.05;100.00;101778.63;5016162;28;20489;-76
2023/09/07 04:44:23;;;;;;;8.02;7.22;;;;;;;14.03;100.00;101769.84;5017269;28;20026;-76
2023/09/07 04:46:50;;;;;;;8.18;7.38;;;;;;;13.99;100.00;101768.56;5018228;28;20030;-76
2023/09/07 04:49:15;;;;;;;7.80;6.97;;;;;;;13.95;100.00;101768.13;5016315;28;20484;-78
2023/09/07 04:51:43;;;;;;;7.43;6.68;;;;;;;13.96;100.00;101763.53;5022637;28;20054;-76
2023/09/07 04:54:08;;;;;;;9.23;8.23;;;;;;;13.96;100.00;101768.94;5018431;28;20026;-77
2023/09/07 04:56:34;;;;;;;8.05;7.30;;;;;;;13.94;100.00;101766.44;4979023;28;20093;-76
2023/09/07 04:58:59;;;;;;;8.55;7.75;;;;;;;13.93;100.00;101769.38;4996772;28;20471;-76
2023/09/07 05:01:25;;;;;;;8.90;7.93;;;;;;;13.90;100.00;101770.56;5002158;28;20079;-76
2023/09/07 05:03:51;;;;;;;11.82;8.07;;;;;;;13.88;100.00;101764.53;5014412;28;20037;-76
2023/09/07 05:06:16;;;;;;;8.70;7.82;;;;;;;13.86;100.00;101771.19;5013014;28;20018;-76
2023/09/07 05:08:41;;;;;;;9.35;8.45;;;;;;;13.88;100.00;101766.41;5014169;28;20458;-76
2023/09/07 05:11:07;;;;;;;9.43;8.50;;;;;;;13.90;100.00;101769.75;5013859;28;20029;-76
2023/09/07 05:13:35;;;;;;;9.40;8.50;;;;;;;13.93;100.00;101786.44;5013895;28;20088;-79
2023/09/07 05:16:01;;;;;;;8.98;8.07;;;;;;;13.96;100.00;101771.66;5010088;28;20470;-78
2023/09/07 05:18:26;;;;;;;9.40;8.32;;;;;;;14.05;100.00;101778.63;5015082;28;20024;-77
2023/09/07 05:20:51;;;;;;;9.50;8.10;;;;;;;14.18;100.00;101787.84;5019077;28;20022;-77
2023/09/07 05:23:20;;;;;;;10.18;8.57;;;;;;;14.27;100.00;101786.69;5015742;28;20355;-78
2023/09/07 05:25:46;;;;;;;8.73;7.75;;;;;;;14.39;100.00;101787.78;5023064;28;20038;-76
2023/09/07 05:28:14;;;;;;;10.23;8.27;;;;;;;14.50;100.00;101796.38;5020274;28;20032;-75
2023/09/07 05:30:41;;;;;;;10.07;8.10;;;;;;;14.62;100.00;101794.78;5011902;28;20025;-75
2023/09/07 05:33:06;;;;;;;8.60;7.75;;;;;;;14.72;100.00;101790.91;5012193;28;20116;-75
2023/09/07 05:35:32;;;;;;;9.48;8.25;;;;;;;14.84;100.00;101797.41;5012570;28;20030;-75
2023/09/07 05:37:58;;;;;;;10.10;8.70;;;;;;;14.95;100.00;101793.28;4992625;28;20026;-75
2023/09/07 05:40:23;;;;;;;8.75;7.75;;;;;;;15.06;100.00;101791.84;4993343;28;20429;-75
2023/09/07 05:42:49;;;;;;;8.90;8.10;;;;;;;15.15;100.00;101788.75;5008633;28;20139;-76
2023/09/07 05:45:14;;;;;;;8.80;7.90;;;;;;;15.26;100.00;101803.59;4999550;28;20018;-76
2023/09/07 05:47:39;;;;;;;9.15;8.25;;;;;;;15.38;100.00;101800.28;5008255;28;20509;-73
2023/09/07 05:50:08;;;;;;;9.80;7.82;;;;;;;15.48;99.04;101792.59;5021854;28;20107;-74
2023/09/07 05:52:33;;;;;;;8.73;7.63;;;;;;;15.59;97.64;101802.81;5017288;28;20537;-73
2023/09/07 05:54:59;;;;;;;9.55;8.25;;;;;;;15.69;96.73;101801.59;5013943;28;20055;-74
2023/09/07 05:57:24;;;;;;;9.00;8.07;;;;;;;15.81;96.03;101801.78;5009432;28;20041;-73
2023/09/07 05:59:52;;;;;;;8.90;8.00;;;;;;;15.95;95.76;101803.50;5013330;28;20029;-74
2023/09/07 06:02:18;;;;;;;9.45;8.18;;;;;;;16.14;94.66;101807.25;5012591;28;20046;-74
2023/09/07 06:04:43;;;;;;;9.23;7.30;;;;;;;16.68;93.60;101813.38;5010303;28;20419;-74
2023/09/07 06:07:09;;;;;;;7.93;7.05;;;;;;;17.88;86.78;101821.94;5009418;28;20034;-74
2023/09/07 06:09:35;;;;;;;7.85;7.05;;;;;;;19.59;78.43;101826.09;5011066;28;20037;-75
2023/09/07 06:12:02;;;;;;;8.85;7.47;;;;;;;21.26;70.50;101830.38;5012205;28;20034;-76
2023/09/07 06:14:27;;;;;;;9.93;6.95;;;;;;;22.52;62.45;101823.91;5009947;28;20033;-75
2023/09/07 06:16:52;;;;;;;7.15;6.55;;;;;;;23.79;58.99;101827.47;5010498;28;20099;-75
2023/09/07 06:19:21;;;;;;;8.13;6.07;;;;;;;24.45;55.52;101826.28;5011397;28;20033;-74
2023/09/07 06:21:46;;;;;;;8.20;5.70;;;;;;;25.10;54.47;101833.44;5012325;28;20133;-75
2023/09/07 06:24:11;;;;;;;13.00;5.75;;;;;;;24.98;52.19;101829.03;5005569;28;20390;-74
2023/09/07 06:26:37;;;;;;;12.85;6.38;;;;;;;25.41;50.90;101825.25;5010894;28;20104;-74
2023/09/07 06:29:02;;;;;;;10.63;6.35;;;;;;;26.29;49.66;101828.00;5011382;28;20034;-75
2023/09/07 06:31:30;;;;;;;7.00;5.93;;;;;;;25.92;49.50;101829.16;5011814;28;20117;-76
2023/09/07 06:33:56;;;;;;;6.93;5.88;;;;;;;26.21;48.52;101831.31;5011903;28;20136;-75
2023/09/07 06:36:21;;;;;;;7.93;5.45;;;;;;;26.61;47.22;101833.13;5010948;28;20022;-76
2023/09/07 06:38:47;;;;;;;6.78;5.00;;;;;;;26.86;46.09;101834.16;5002310;28;20475;-76
2023/09/07 06:41:12;;;;;;;6.65;5.28;;;;;;;27.52;44.73;101839.59;5011125;28;20034;-76
2023/09/07 06:43:37;;;;;;;8.50;5.13;;;;;;;27.32;44.56;101843.28;5010828;28;20034;-75
2023/09/07 06:46:07;;;;;;;6.22;5.53;;;;;;;27.06;45.33;101837.94;5014996;28;20030;-75
2023/09/07 06:48:33;;;;;;;5.82;5.07;;;;;;;27.23;45.47;101840.31;4995026;28;20066;-78
2023/09/07 06:51:05;;;;;;;5.72;5.22;;;;;;;28.06;42.46;101845.22;5011293;28;20145;-75
2023/09/07 06:53:31;;;;;;;6.45;5.28;;;;;;;27.99;42.96;101838.06;5009974;28;20048;-76
2023/09/07 06:55:59;;;;;;;5.32;4.82;;;;;;;28.34;42.60;101840.75;5010616;28;20022;-76
2023/09/07 06:58:25;;;;;;;6.90;5.03;;;;;;;28.80;41.58;101842.19;5009655;28;20544;-76
2023/09/07 07:00:50;;;;;;;7.07;5.07;;;;;;;28.43;42.22;101846.47;5008400;28;20034;-75
2023/09/07 07:03:15;;;;;;;5.13;4.63;;;;;;;28.95;40.65;101845.84;5010058;28;20037;-76
2023/09/07 07:05:42;;;;;;;4.70;4.30;;;;;;;29.42;40.72;101849.66;5010847;28;20367;-76
2023/09/07 07:08:07;;;;;;;6.63;4.82;;;;;;;29.63;39.85;101852.91;5007035;28;20114;-77
2023/09/07 07:10:33;;;;;;;6.93;4.53;;;;;;;29.96;38.90;101849.34;5009069;28;20201;-76
2023/09/07 07:12:58;;;;;;;5.50;4.72;;;;;;;30.28;38.10;101850.41;5011578;28;20030;-76
2023/09/07 07:15:23;;;;;;;6.28;4.55;;;;;;;30.39;38.88;101854.59;5008273;28;20466;-76
2023/09/07 07:17:49;;;;;;;5.38;4.55;;;;;;;29.89;39.04;101849.72;5007687;28;20033;-76
2023/09/07 07:20:14;;;;;;;7.38;4.72;;;;;;;30.53;37.70;101856.59;5010468;28;20411;-76
2023/09/07 07:22:40;;;;;;;7.40;4.60;;;;;;;30.23;38.70;101854.09;5008752;28;20022;-76
2023/09/07 07:25:05;;;;;;;5.45;4.35;;;;;;;30.54;38.05;101853.50;5009357;28;20026;-75
2023/09/07 07:27:31;;;;;;;6.53;4.20;;;;;;;31.38;36.39;101853.34;5009856;28;20032;-73
2023/09/07 07:29:57;;;;;;;6.20;4.35;;;;;;;30.61;38.00;101850.31;5008977;28;20148;-74
2023/09/07 07:32:22;;;;;;;5.85;4.10;;;;;;;31.25;36.35;101854.22;5008574;28;20104;-74
2023/09/07 07:34:48;;;;;;;4.90;4.10;;;;;;;31.03;36.64;101857.78;5010019;28;20514;-74
2023/09/07 07:37:13;;;;;;;4.82;4.30;;;;;;;31.06;36.34;101849.63;5008035;28;20029;-73
2023/09/07 07:39:38;;;;;;;6.00;4.05;;;;;;;30.88;35.71;101853.38;5008021;28;20293;-74
2023/09/07 07:42:05;;;;;;;5.47;3.70;;;;;;;31.61;35.48;101847.78;4991963;28;20100;-74
2023/09/07 07:44:31;;;;;;;5.43;4.20;;;;;;;31.78;35.01;101849.06;4993602;28;20022;-74
2023/09/07 07:46:56;;;;;;;5.97;4.32;;;;;;;31.60;35.06;101851.72;4994815;28;20053;-74
2023/09/07 07:49:22;;;;;;;6.05;3.63;;;;;;;32.38;33.67;101850.53;5001120;28;20021;-73
2023/09/07 07:51:47;;;;;;;5.57;4.00;;;;;;;33.11;33.16;101844.47;5013877;28;20046;-74
2023/09/07 07:54:13;;;;;;;5.00;3.65;;;;;;;32.80;33.72;101848.19;5013559;28;20036;-74
2023/09/07 07:56:39;;;;;;;6.63;3.88;;;;;;;33.01;33.12;101853.13;5014568;28;20042;-74
2023/09/07 07:59:04;;;;;;;4.10;3.70;;;;;;;32.28;34.22;101851.66;5013003;28;20044;-76
2023/09/07 08:01:30;;;;;;;6.60;3.92;;;;;;;31.84;34.62;101853.38;5012893;28;20488;-74
2023/09/07 08:03:55;;;;;;;5.72;3.72;;;;;;;32.06;34.61;101844.16;5014490;28;20034;-74
2023/09/07 08:06:20;;;;;;;7.63;3.83;;;;;;;32.24;33.75;101849.81;5013135;28;20413;-74
2023/09/07 08:08:46;;;;;;;6.88;3.80;;;;;;;31.82;34.09;101852.88;5013882;28;20026;-74
2023/09/07 08:11:11;;;;;;;4.20;3.70;;;;;;;32.82;33.15;101853.47;5014230;28;20018;-74
2023/09/07 08:13:37;;;;;;;7.55;3.90;;;;;;;32.01;34.31;101852.63;5012524;28;20037;-74
2023/09/07 08:16:03;;;;;;;4.80;3.78;;;;;;;33.19;32.58;101850.34;5012116;28;20049;-74
2023/09/07 08:18:28;;;;;;;3.92;3.45;;;;;;;34.97;29.84;101851.13;4997239;28;20034;-74
2023/09/07 08:20:54;;;;;;;4.45;3.35;;;;;;;34.74;30.36;101854.22;5014004;28;20060;-74
2023/09/07 08:23:21;;;;;;;4.57;3.63;;;;;;;34.15;31.38;101839.03;5013397;28;20438;-74
2023/09/07 08:25:46;;;;;;;4.70;3.88;;;;;;;34.67;31.34;101847.53;5013321;28;20105;-74
2023/09/07 08:28:12;;;;;;;4.90;3.35;;;;;;;34.25;31.73;101849.03;5013950;28;20037;-75
2023/09/07 08:30:37;;;;;;;3.80;3.40;;;;;;;33.78;32.66;101846.22;5011361;28;20026;-74
2023/09/07 08:33:05;;;;;;;3.78;3.45;;;;;;;33.89;31.13;101839.13;5013229;28;20309;-75
2023/09/07 08:35:30;;;;;;;7.32;3.67;;;;;;;34.43;30.72;101840.56;5013661;28;20025;-74
2023/09/07 08:37:58;;;;;;;6.72;3.70;;;;;;;34.67;30.53;101842.75;5013361;28;20030;-74
2023/09/07 08:40:23;;;;;;;3.95;3.40;;;;;;;35.27;28.92;101839.84;5012940;28;20096;-74
2023/09/07 08:42:49;;;;;;;4.03;3.47;;;;;;;34.88;29.51;101839.97;5013725;28;20116;-74
2023/09/07 08:45:15;;;;;;;3.42;3.10;;;;;;;35.50;29.34;101848.69;5011351;28;20029;-74
2023/09/07 08:47:43;;;;;;;3.67;3.22;;;;;;;35.82;28.80;101842.59;4979063;28;20022;-74
2023/09/07 08:50:09;;;;;;;5.18;3.65;;;;;;;35.78;28.38;101853.69;5012937;28;20075;-75
2023/09/07 08:52:34;;;;;;;3.35;3.00;;;;;;;35.56;29.49;101843.72;5011279;28;20128;-74
2023/09/07 08:55:00;;;;;;;5.13;3.40;;;;;;;34.73;30.46;101837.78;5009798;28;20022;-75
2023/09/07 08:57:26;;;;;;;4.82;3.33;;;;;;;35.49;29.15;101835.84;5011631;28;20068;-74
2023/09/07 08:59:52;;;;;;;4.10;3.17;;;;;;;34.97;29.23;101842.72;5011849;28;20359;-74
2023/09/07 09:02:17;;;;;;;5.30;3.47;;;;;;;35.12;29.11;101844.09;4994426;28;20025;-75
2023/09/07 09:04:43;;;;;;;6.45;3.28;;;;;;;34.74;29.72;101833.84;5012560;28;20040;-74
2023/09/07 09:07:09;;;;;;;4.82;3.38;;;;;;;36.33;27.17;101841.50;5009478;28;20520;-74
2023/09/07 09:09:34;;;;;;;6.22;3.20;;;;;;;36.26;28.00;101844.88;5012485;28;20089;-74
2023/09/07 09:12:08;;;;;;;5.03;3.13;;;;;;;36.07;27.96;101835.06;5013623;28;20014;-74
2023/09/07 09:14:34;;;;;;;5.65;3.20;;;;;;;36.31;27.41;101835.41;5011751;28;20120;-74
2023/09/07 09:16:59;;;;;;;6.80;3.40;;;;;;;36.25;27.60;101838.47;5012438;28;20109;-75
2023/09/07 09:19:34;;;;;;;3.72;3.17;;;;;;;36.91;27.27;101840.50;5012571;28;20052;-74
2023/09/07 09:21:59;;;;;;;5.30;3.38;;;;;;;37.04;27.25;101847.75;5017334;28;20030;-74
2023/09/07 09:24:25;;;;;;;3.75;3.40;;;;;;;37.04;26.77;101838.53;5014304;28;20036;-75
2023/09/07 09:26:50;;;;;;;4.45;3.20;;;;;;;36.82;27.08;101832.22;5014620;28;20033;-74
2023/09/07 09:29:16;;;;;;;7.50;3.58;;;;;;;38.48;25.01;101833.09;5015282;28;20036;-75
2023/09/07 09:31:42;;;;;;;4.30;3.00;;;;;;;36.87;26.56;101829.19;5017178;28;20037;-74
2023/09/07 09:34:11;;;;;;;5.80;3.33;;;;;;;36.36;27.79;101827.59;4999823;28;20033;-75
2023/09/07 09:36:37;;;;;;;3.65;3.35;;;;;;;37.06;26.55;101827.75;4996966;28;20014;-76
2023/09/07 09:39:03;;;;;;;4.50;3.00;;;;;;;37.23;27.04;101824.63;5015971;28;20119;-75
2023/09/07 09:41:31;;;;;;;4.78;3.05;;;;;;;36.53;27.45;101820.16;5022409;28;20508;-75
2023/09/07 09:43:57;;;;;;;3.88;3.15;;;;;;;36.08;27.86;101819.09;5027530;28;20025;-75
2023/09/07 09:46:22;;;;;;;4.90;3.15;;;;;;;37.20;26.66;101819.75;5005699;28;20536;-74
2023/09/07 09:48:47;;;;;;;5.10;3.10;;;;;;;37.12;26.82;101813.09;4995876;28;20037;-75
2023/09/07 09:51:14;;;;;;;5.78;3.00;;;;;;;36.89;26.75;101809.97;4991486;28;20065;-75
2023/09/07 09:53:39;;;;;;;5.03;3.33;;;;;;;36.61;26.35;101809.97;4994587;28;20092;-75
2023/09/07 09:56:05;;;;;;;6.07;3.22;;;;;;;36.86;26.23;101810.72;4995073;28;20026;-75
2023/09/07 09:58:33;;;;;;;3.58;3.25;;;;;;;37.47;25.94;101801.25;4975187;28;20024;-75
2023/09/07 10:00:59;;;;;;;5.40;3.33;;;;;;;36.47;26.70;101810.34;5009999;28;20048;-75
2023/09/07 10:03:28;;;;;;;3.85;3.20;;;;;;;36.51;27.57;101797.25;4976130;28;20483;-74
2023/09/07 10:05:54;;;;;;;3.90;3.47;;;;;;;36.31;27.21;101802.59;4991687;28;20053;-75
2023/09/07 10:08:20;;;;;;;3.65;3.20;;;;;;;36.70;26.37;101803.03;4992796;28;20042;-74
2023/09/07 10:10:49;;;;;;;6.07;3.05;;;;;;;37.00;26.95;101797.13;5011617;28;20030;-74
2023/09/07 10:13:14;;;;;;;3.90;3.20;;;;;;;37.57;26.80;101793.47;5010499;28;20064;-74
2023/09/07 10:15:40;;;;;;;5.57;3.17;;;;;;;36.14;28.25;101791.63;5007887;28;20063;-74
2023/09/07 10:18:16;;;;;;;6.57;3.50;;;;;;;36.63;28.05;101793.56;5008109;28;20044;-74
2023/09/07 10:20:55;;;;;;;8.02;3.50;;;;;;;36.61;28.27;101788.31;5011161;28;20111;-74
2023/09/07 10:23:21;;;;;;;4.63;3.20;;;;;;;36.98;27.35;101785.44;5011979;28;20030;-74
2023/09/07 10:25:49;;;;;;;4.47;3.60;;;;;;;37.50;27.22;101779.25;5009307;28;20069;-74
2023/09/07 10:28:24;;;;;;;5.43;3.10;;;;;;;37.69;25.90;101772.91;5009768;28;20129;-74
2023/09/07 10:31:05;;;;;;;4.82;3.67;;;;;;;37.50;26.49;101777.25;5007512;28;20026;-74
2023/09/07 10:33:34;;;;;;;6.22;3.50;;;;;;;37.72;26.00;101772.97;5009076;28;20457;-74
2023/09/07 10:36:02;;;;;;;3.67;3.30;;;;;;;37.68;26.35;101765.66;5009916;28;20469;-74
2023/09/07 10:38:28;;;;;;;6.25;3.40;;;;;;;37.51;25.49;101767.63;5009489;28;20026;-74
2023/09/07 10:40:58;;;;;;;5.40;3.42;;;;;;;36.48;26.70;101761.50;5008842;28;20028;-74
2023/09/07 10:43:27;;;;;;;6.10;3.20;;;;;;;36.86;26.76;101757.41;5007871;28;20030;-74
2023/09/07 10:45:56;;;;;;;3.47;3.10;;;;;;;36.53;26.93;101761.25;5010004;28;20437;-74
2023/09/07 10:48:21;;;;;;;4.65;3.40;;;;;;;35.92;26.76;101760.06;5009948;28;20033;-74
2023/09/07 10:50:46;;;;;;;5.07;3.10;;;;;;;35.70;27.96;101753.75;5009736;28;20014;-74
2023/09/07 10:53:13;;;;;;;3.15;2.85;;;;;;;36.07;27.67;101756.59;5008871;28;20033;-74
2023/09/07 10:55:39;;;;;;;3.58;2.83;;;;;;;36.43;26.23;101748.50;5009233;28;20022;-74
2023/09/07 10:58:09;;;;;;;5.63;3.22;;;;;;;35.32;27.88;101746.41;5011176;28;20028;-74
2023/09/07 11:00:34;;;;;;;5.32;2.90;;;;;;;35.56;27.54;101756.91;4991447;28;20026;-74
2023/09/07 11:03:07;;;;;;;4.80;3.40;;;;;;;36.70;26.36;101744.13;5010025;28;20049;-74
2023/09/07 11:05:34;;;;;;;3.85;3.22;;;;;;;37.32;25.29;101735.44;5010712;28;20176;-74
2023/09/07 11:08:00;;;;;;;8.13;3.58;;;;;;;37.62;25.31;101740.63;4992263;28;20044;-74
2023/09/07 11:10:26;;;;;;;4.55;3.00;;;;;;;38.04;24.89;101736.44;4992969;28;20037;-74
2023/09/07 11:12:54;;;;;;;5.72;3.08;;;;;;;37.67;24.50;101730.28;5009280;28;20026;-74
2023/09/07 11:15:19;;;;;;;3.17;2.90;;;;;;;36.88;24.66;101724.19;5008325;28;20391;-75
2023/09/07 11:17:45;;;;;;;6.40;2.83;;;;;;;36.31;26.13;101729.72;4993670;28;20146;-75